sensor_id;sensor_type;location;lat;lon;timestamp;pressure;altitude;pressure_sealevel;temperature;humidity
10097;BME280;5087;42.662;23.466;2023-08-24T00:00:56;95494.06;;;19.04;100.00
10097;BME280;5087;42.662;23.466;2023-08-24T00:03:23;95488.88;;;19.25;100.00
10097;BME280;5087;42.662;23.466;2023-08-24T00:05:51;95473.63;;;19.32;100.00
10097;BME280;5087;42.662;23.466;2023-08-24T00:08:18;95492.41;;;19.26;100.00
10097;BME280;5087;42.662;23.466;2023-08-24T00:10:46;95496.97;;;19.14;100.00
10097;BME280;5087;42.662;23.466;2023-08-24T00:13:14;95499.25;;;19.09;100.00
10097;BME280;5087;42.662;23.466;2023-08-24T00:15:41;95479.91;;;18.82;100.00
10097;BME280;5087;42.662;23.466;2023-08-24T00:18:08;95499.56;;;18.38;100.00
10097;BME280;5087;42.662;23.466;2023-08-24T00:20:35;95503.03;;;17.76;100.00
10097;BME280;5087;42.662;23.466;2023-08-24T00:23:04;95485.66;;;17.52;100.00
10097;BME280;5087;42.662;23.466;2023-08-24T00:25:32;95489.84;;;17.46;100.00
10097;BME280;5087;42.662;23.466;2023-08-24T00:27:59;95487.47;;;17.44;100.00
10097;BME280;5087;42.662;23.466;2023-08-24T00:30:27;95481.41;;;17.54;100.00
10097;BME280;5087;42.662;23.466;2023-08-24T00:32:54;95478.31;;;17.76;100.00
10097;BME280;5087;42.662;23.466;2023-08-24T00:35:21;95478.69;;;17.74;100.00
10097;BME280;5087;42.662;23.466;2023-08-24T00:37:50;95499.94;;;17.77;100.00
10097;BME280;5087;42.662;23.466;2023-08-24T00:40:19;95491.97;;;17.36;100.00
10097;BME280;5087;42.662;23.466;2023-08-24T00:42:47;95499.03;;;17.18;100.00
10097;BME280;5087;42.662;23.466;2023-08-24T00:45:14;95494.81;;;17.04;100.00
10097;BME280;5087;42.662;23.466;2023-08-24T00:47:44;95495.88;;;17.00;100.00
10097;BME280;5087;42.662;23.466;2023-08-24T00:50:13;95490.31;;;16.96;100.00
10097;BME280;5087;42.662;23.466;2023-08-24T00:52:41;95500.63;;;16.87;100.00
10097;BME280;5087;42.662;23.466;2023-08-24T00:55:08;95515.91;;;16.88;100.00
10097;BME280;5087;42.662;23.466;2023-08-24T00:57:40;95509.63;;;16.87;100.00
10097;BME280;5087;42.662;23.466;2023-08-24T01:00:08;95503.56;;;16.94;100.00
10097;BME280;5087;42.662;23.466;2023-08-24T01:02:36;95514.25;;;16.99;100.00
10097;BME280;5087;42.662;23.466;2023-08-24T01:05:04;95516.28;;;17.02;100.00
10097;BME280;5087;42.662;23.466;2023-08-24T01:07:32;95510.97;;;17.09;100.00
10097;BME280;5087;42.662;23.466;2023-08-24T01:10:01;95510.00;;;17.18;100.00
10097;BME280;5087;42.662;23.466;2023-08-24T01:12:42;95504.84;;;17.32;100.00
10097;BME280;5087;42.662;23.466;2023-08-24T01:15:16;95515.38;;;17.30;100.00
10097;BME280;5087;42.662;23.466;2023-08-24T01:17:47;95514.91;;;17.28;100.00
10097;BME280;5087;42.662;23.466;2023-08-24T01:20:17;95503.53;;;17.26;100.00
10097;BME280;5087;42.662;23.466;2023-08-24T01:22:52;95506.00;;;17.31;100.00
10097;BME280;5087;42.662;23.466;2023-08-24T01:25:28;95493.91;;;17.16;100.00
10097;BME280;5087;42.662;23.466;2023-08-24T01:28:02;95510.16;;;17.25;100.00
10097;BME280;5087;42.662;23.466;2023-08-24T01:30:31;95502.03;;;17.48;100.00
10097;BME280;5087;42.662;23.466;2023-08-24T01:32:59;95500.59;;;17.35;100.00
10097;BME280;5087;42.662;23.466;2023-08-24T01:35:26;95495.78;;;17.32;100.00
10097;BME280;5087;42.662;23.466;2023-08-24T01:37:53;95494.84;;;17.24;100.00
10097;BME280;5087;42.662;23.466;2023-08-24T01:40:26;95506.69;;;17.28;100.00
10097;BME280;5087;42.662;23.466;2023-08-24T01:42:58;95503.88;;;17.60;100.00
10097;BME280;5087;42.662;23.466;2023-08-24T01:45:29;95501.88;;;17.57;100.00
10097;BME280;5087;42.662;23.466;2023-08-24T01:47:59;95488.41;;;17.52;100.00
10097;BME280;5087;42.662;23.466;2023-08-24T01:50:29;95506.78;;;17.67;100.00
10097;BME280;5087;42.662;23.466;2023-08-24T01:52:56;95483.66;;;17.68;100.00
10097;BME280;5087;42.662;23.466;2023-08-24T01:55:25;95483.53;;;17.81;100.00
10097;BME280;5087;42.662;23.466;2023-08-24T01:57:55;95487.56;;;17.87;100.00
10097;BME280;5087;42.662;23.466;2023-08-24T02:00:23;95495.16;;;17.74;100.00
10097;BME280;5087;42.662;23.466;2023-08-24T02:02:52;95502.84;;;17.49;100.00
10097;BME280;5087;42.662;23.466;2023-08-24T02:05:19;95488.81;;;17.34;100.00
10097;BME280;5087;42.662;23.466;2023-08-24T02:07:51;95487.78;;;17.23;100.00
10097;BME280;5087;42.662;23.466;2023-08-24T02:10:18;95498.81;;;17.43;100.00
10097;BME280;5087;42.662;23.466;2023-08-24T02:12:46;95501.56;;;17.43;100.00
10097;BME280;5087;42.662;23.466;2023-08-24T02:15:13;95501.09;;;17.40;100.00
10097;BME280;5087;42.662;23.466;2023-08-24T02:17:40;95496.22;;;17.50;100.00
10097;BME280;5087;42.662;23.466;2023-08-24T02:20:11;95503.72;;;17.53;100.00
10097;BME280;5087;42.662;23.466;2023-08-24T02:22:38;95479.44;;;17.35;100.00
10097;BME280;5087;42.662;23.466;2023-08-24T02:25:06;95500.13;;;17.49;100.00
10097;BME280;5087;42.662;23.466;2023-08-24T02:27:33;95500.91;;;17.49;100.00
10097;BME280;5087;42.662;23.466;2023-08-24T02:30:01;95507.47;;;17.45;100.00
10097;BME280;5087;42.662;23.466;2023-08-24T02:32:28;95512.59;;;17.46;100.00
10097;BME280;5087;42.662;23.466;2023-08-24T02:34:57;95498.00;;;17.42;100.00
10097;BME280;5087;42.662;23.466;2023-08-24T02:37:26;95503.94;;;17.44;100.00
10097;BME280;5087;42.662;23.466;2023-08-24T02:39:54;95501.81;;;17.37;100.00
10097;BME280;5087;42.662;23.466;2023-08-24T02:42:21;95510.19;;;17.61;100.00
10097;BME280;5087;42.662;23.466;2023-08-24T02:44:49;95501.94;;;17.80;100.00
10097;BME280;5087;42.662;23.466;2023-08-24T02:47:16;95479.00;;;17.53;100.00
10097;BME280;5087;42.662;23.466;2023-08-24T02:49:43;95492.41;;;17.54;100.00
10097;BME280;5087;42.662;23.466;2023-08-24T02:52:11;95487.78;;;17.59;100.00
10097;BME280;5087;42.662;23.466;2023-08-24T02:54:39;95498.69;;;17.55;100.00
10097;BME280;5087;42.662;23.466;2023-08-24T02:57:06;95473.75;;;17.44;100.00
10097;BME280;5087;42.662;23.466;2023-08-24T02:59:34;95476.28;;;17.53;100.00
10097;BME280;5087;42.662;23.466;2023-08-24T03:02:01;95481.50;;;17.58;100.00
10097;BME280;5087;42.662;23.466;2023-08-24T03:04:29;95486.19;;;17.58;100.00
10097;BME280;5087;42.662;23.466;2023-08-24T03:06:56;95497.81;;;17.70;100.00
10097;BME280;5087;42.662;23.466;2023-08-24T03:09:23;95503.63;;;17.65;100.00
10097;BME280;5087;42.662;23.466;2023-08-24T03:11:52;95510.84;;;17.38;100.00
10097;BME280;5087;42.662;23.466;2023-08-24T03:14:19;95504.69;;;17.09;100.00
10097;BME280;5087;42.662;23.466;2023-08-24T03:16:48;95521.13;;;17.09;100.00
10097;BME280;5087;42.662;23.466;2023-08-24T03:19:16;95501.19;;;16.92;100.00
10097;BME280;5087;42.662;23.466;2023-08-24T03:21:45;95493.47;;;16.66;100.00
10097;BME280;5087;42.662;23.466;2023-08-24T03:24:12;95480.50;;;16.35;100.00
10097;BME280;5087;42.662;23.466;2023-08-24T03:26:40;95520.09;;;16.37;100.00
10097;BME280;5087;42.662;23.466;2023-08-24T03:29:09;95505.38;;;16.13;100.00
10097;BME280;5087;42.662;23.466;2023-08-24T03:31:36;95483.78;;;15.96;100.00
10097;BME280;5087;42.662;23.466;2023-08-24T03:34:04;95514.69;;;15.96;100.00
10097;BME280;5087;42.662;23.466;2023-08-24T03:36:32;95530.66;;;15.94;100.00
10097;BME280;5087;42.662;23.466;2023-08-24T03:38:59;95531.59;;;15.98;100.00
10097;BME280;5087;42.662;23.466;2023-08-24T03:41:29;95534.88;;;16.04;100.00
10097;BME280;5087;42.662;23.466;2023-08-24T03:43:57;95531.41;;;16.07;100.00
10097;BME280;5087;42.662;23.466;2023-08-24T03:46:26;95540.19;;;16.13;100.00
10097;BME280;5087;42.662;23.466;2023-08-24T03:48:56;95546.81;;;16.12;100.00
10097;BME280;5087;42.662;23.466;2023-08-24T03:51:24;95539.53;;;16.04;100.00
10097;BME280;5087;42.662;23.466;2023-08-24T03:53:54;95570.16;;;16.22;100.00
10097;BME280;5087;42.662;23.466;2023-08-24T03:56:21;95565.13;;;16.24;100.00
10097;BME280;5087;42.662;23.466;2023-08-24T03:58:48;95565.63;;;16.42;100.00
10097;BME280;5087;42.662;23.466;2023-08-24T04:01:17;95566.88;;;16.44;100.00
10097;BME280;5087;42.662;23.466;2023-08-24T04:03:45;95559.66;;;16.52;100.00
10097;BME280;5087;42.662;23.466;2023-08-24T04:06:13;95525.16;;;16.35;100.00
10097;BME280;5087;42.662;23.466;2023-08-24T04:08:43;95563.53;;;16.51;100.00
10097;BME280;5087;42.662;23.466;2023-08-24T04:11:11;95550.41;;;16.28;100.00
10097;BME280;5087;42.662;23.466;2023-08-24T04:13:41;95571.91;;;16.42;100.00
10097;BME280;5087;42.662;23.466;2023-08-24T04:16:09;95560.06;;;16.38;100.00
10097;BME280;5087;42.662;23.466;2023-08-24T04:18:37;95530.66;;;16.23;100.00
10097;BME280;5087;42.662;23.466;2023-08-24T04:21:07;95530.00;;;16.26;100.00
10097;BME280;5087;42.662;23.466;2023-08-24T04:23:38;95555.22;;;16.64;100.00
10097;BME280;5087;42.662;23.466;2023-08-24T04:26:10;95556.75;;;16.61;100.00
10097;BME280;5087;42.662;23.466;2023-08-24T04:28:38;95552.44;;;16.76;100.00
10097;BME280;5087;42.662;23.466;2023-08-24T04:31:06;95560.66;;;16.92;100.00
10097;BME280;5087;42.662;23.466;2023-08-24T04:33:33;95563.75;;;16.74;100.00
10097;BME280;5087;42.662;23.466;2023-08-24T04:36:02;95547.47;;;16.66;100.00
10097;BME280;5087;42.662;23.466;2023-08-24T04:38:31;95539.97;;;16.63;100.00
10097;BME280;5087;42.662;23.466;2023-08-24T04:40:58;95546.97;;;16.76;100.00
10097;BME280;5087;42.662;23.466;2023-08-24T04:43:26;95552.81;;;16.90;100.00
10097;BME280;5087;42.662;23.466;2023-08-24T04:45:54;95552.91;;;16.94;100.00
10097;BME280;5087;42.662;23.466;2023-08-24T04:48:23;95565.13;;;17.13;100.00
10097;BME280;5087;42.662;23.466;2023-08-24T04:50:50;95557.50;;;17.22;100.00
10097;BME280;5087;42.662;23.466;2023-08-24T04:53:19;95556.00;;;17.40;100.00
10097;BME280;5087;42.662;23.466;2023-08-24T04:55:54;95555.41;;;17.67;100.00
10097;BME280;5087;42.662;23.466;2023-08-24T04:58:22;95560.44;;;17.65;100.00
10097;BME280;5087;42.662;23.466;2023-08-24T05:00:50;95566.81;;;17.69;100.00
10097;BME280;5087;42.662;23.466;2023-08-24T05:03:17;95562.56;;;17.71;100.00
10097;BME280;5087;42.662;23.466;2023-08-24T05:05:45;95561.91;;;17.78;100.00
10097;BME280;5087;42.662;23.466;2023-08-24T05:08:13;95569.22;;;17.90;100.00
10097;BME280;5087;42.662;23.466;2023-08-24T05:10:41;95570.81;;;17.91;100.00
10097;BME280;5087;42.662;23.466;2023-08-24T05:13:10;95571.00;;;17.98;100.00
10097;BME280;5087;42.662;23.466;2023-08-24T05:15:38;95564.50;;;18.07;100.00
10097;BME280;5087;42.662;23.466;2023-08-24T05:18:05;95567.53;;;18.21;100.00
10097;BME280;5087;42.662;23.466;2023-08-24T05:20:33;95553.03;;;18.21;100.00
10097;BME280;5087;42.662;23.466;2023-08-24T05:23:00;95565.66;;;18.45;100.00
10097;BME280;5087;42.662;23.466;2023-08-24T05:25:28;95558.56;;;18.44;100.00
10097;BME280;5087;42.662;23.466;2023-08-24T05:27:55;95551.72;;;18.54;100.00
10097;BME280;5087;42.662;23.466;2023-08-24T05:30:23;95569.13;;;18.61;100.00
10097;BME280;5087;42.662;23.466;2023-08-24T05:32:51;95569.19;;;18.65;100.00
10097;BME280;5087;42.662;23.466;2023-08-24T05:35:18;95572.75;;;18.46;100.00
10097;BME280;5087;42.662;23.466;2023-08-24T05:37:45;95557.53;;;17.93;100.00
10097;BME280;5087;42.662;23.466;2023-08-24T05:40:13;95581.88;;;18.11;100.00
10097;BME280;5087;42.662;23.466;2023-08-24T05:42:40;95590.88;;;17.92;100.00
10097;BME280;5087;42.662;23.466;2023-08-24T05:45:09;95569.19;;;17.51;100.00
10097;BME280;5087;42.662;23.466;2023-08-24T05:47:39;95589.88;;;17.64;100.00
10097;BME280;5087;42.662;23.466;2023-08-24T05:50:07;95588.88;;;17.56;100.00
10097;BME280;5087;42.662;23.466;2023-08-24T05:52:34;95573.31;;;17.61;100.00
10097;BME280;5087;42.662;23.466;2023-08-24T05:55:02;95591.50;;;17.85;100.00
10097;BME280;5087;42.662;23.466;2023-08-24T05:57:29;95592.97;;;17.98;100.00
10097;BME280;5087;42.662;23.466;2023-08-24T05:59:56;95587.94;;;18.20;100.00
10097;BME280;5087;42.662;23.466;2023-08-24T06:02:33;95595.38;;;18.39;100.00
10097;BME280;5087;42.662;23.466;2023-08-24T06:05:02;95593.66;;;18.11;100.00
10097;BME280;5087;42.662;23.466;2023-08-24T06:07:31;95595.47;;;18.23;100.00
10097;BME280;5087;42.662;23.466;2023-08-24T06:09:58;95583.88;;;18.53;100.00
10097;BME280;5087;42.662;23.466;2023-08-24T06:12:25;95590.78;;;18.86;100.00
10097;BME280;5087;42.662;23.466;2023-08-24T06:14:52;95602.84;;;19.01;100.00
10097;BME280;5087;42.662;23.466;2023-08-24T06:17:19;95576.47;;;18.96;100.00
10097;BME280;5087;42.662;23.466;2023-08-24T06:19:47;95606.03;;;19.50;100.00
10097;BME280;5087;42.662;23.466;2023-08-24T06:22:16;95594.91;;;19.92;100.00
10097;BME280;5087;42.662;23.466;2023-08-24T06:24:43;95597.94;;;20.45;100.00
10097;BME280;5087;42.662;23.466;2023-08-24T06:27:10;95593.97;;;20.42;100.00
10097;BME280;5087;42.662;23.466;2023-08-24T06:29:38;95598.38;;;20.81;100.00
10097;BME280;5087;42.662;23.466;2023-08-24T06:32:09;95587.28;;;20.77;100.00
10097;BME280;5087;42.662;23.466;2023-08-24T06:34:36;95593.88;;;21.03;100.00
10097;BME280;5087;42.662;23.466;2023-08-24T06:37:03;95596.47;;;21.30;100.00
10097;BME280;5087;42.662;23.466;2023-08-24T06:39:33;95582.72;;;21.37;100.00
10097;BME280;5087;42.662;23.466;2023-08-24T06:42:02;95597.56;;;21.63;100.00
10097;BME280;5087;42.662;23.466;2023-08-24T06:44:32;95600.00;;;21.75;100.00
10097;BME280;5087;42.662;23.466;2023-08-24T06:47:00;95587.16;;;22.01;100.00
10097;BME280;5087;42.662;23.466;2023-08-24T06:49:31;95587.72;;;22.36;100.00
10097;BME280;5087;42.662;23.466;2023-08-24T06:52:00;95574.22;;;22.27;100.00
10097;BME280;5087;42.662;23.466;2023-08-24T06:54:27;95583.75;;;22.33;100.00
10097;BME280;5087;42.662;23.466;2023-08-24T06:56:58;95576.63;;;22.32;100.00
10097;BME280;5087;42.662;23.466;2023-08-24T06:59:25;95576.84;;;22.97;100.00
10097;BME280;5087;42.662;23.466;2023-08-24T07:01:52;95583.25;;;23.48;100.00
10097;BME280;5087;42.662;23.466;2023-08-24T07:04:19;95574.16;;;23.62;100.00
10097;BME280;5087;42.662;23.466;2023-08-24T07:06:47;95562.66;;;23.42;100.00
10097;BME280;5087;42.662;23.466;2023-08-24T07:09:14;95574.53;;;23.64;100.00
10097;BME280;5087;42.662;23.466;2023-08-24T07:11:42;95581.66;;;23.58;100.00
10097;BME280;5087;42.662;23.466;2023-08-24T07:14:11;95571.75;;;23.82;100.00
10097;BME280;5087;42.662;23.466;2023-08-24T07:16:38;95578.81;;;24.23;100.00
10097;BME280;5087;42.662;23.466;2023-08-24T07:19:06;95572.75;;;24.50;100.00
10097;BME280;5087;42.662;23.466;2023-08-24T07:21:34;95544.91;;;24.64;100.00
10097;BME280;5087;42.662;23.466;2023-08-24T07:24:01;95560.47;;;25.18;100.00
10097;BME280;5087;42.662;23.466;2023-08-24T07:26:29;95568.75;;;25.78;100.00
10097;BME280;5087;42.662;23.466;2023-08-24T07:28:57;95560.69;;;26.60;100.00
10097;BME280;5087;42.662;23.466;2023-08-24T07:31:25;95545.97;;;26.94;100.00
10097;BME280;5087;42.662;23.466;2023-08-24T07:33:55;95561.69;;;27.08;100.00
10097;BME280;5087;42.662;23.466;2023-08-24T07:36:23;95542.75;;;27.94;100.00
10097;BME280;5087;42.662;23.466;2023-08-24T07:38:50;95552.03;;;28.72;100.00
10097;BME280;5087;42.662;23.466;2023-08-24T07:41:18;95534.63;;;28.24;100.00
10097;BME280;5087;42.662;23.466;2023-08-24T07:43:45;95539.09;;;27.98;99.84
10097;BME280;5087;42.662;23.466;2023-08-24T07:46:14;95539.84;;;28.99;98.16
10097;BME280;5087;42.662;23.466;2023-08-24T07:48:46;95535.22;;;28.92;94.68
10097;BME280;5087;42.662;23.466;2023-08-24T07:51:13;95546.09;;;27.38;100.00
10097;BME280;5087;42.662;23.466;2023-08-24T07:53:41;95546.00;;;27.89;100.00
10097;BME280;5087;42.662;23.466;2023-08-24T07:56:09;95537.91;;;28.19;100.00
10097;BME280;5087;42.662;23.466;2023-08-24T07:58:36;95552.56;;;26.73;100.00
10097;BME280;5087;42.662;23.466;2023-08-24T08:01:03;95549.06;;;26.38;100.00
10097;BME280;5087;42.662;23.466;2023-08-24T08:03:31;95549.06;;;26.38;100.00
10097;BME280;5087;42.662;23.466;2023-08-24T08:06:01;95547.75;;;26.15;100.00
10097;BME280;5087;42.662;23.466;2023-08-24T08:08:28;95548.22;;;26.41;100.00
10097;BME280;5087;42.662;23.466;2023-08-24T08:10:59;95540.16;;;27.09;100.00
10097;BME280;5087;42.662;23.466;2023-08-24T08:13:27;95552.56;;;26.73;100.00
10097;BME280;5087;42.662;23.466;2023-08-24T08:16:00;95552.59;;;26.04;100.00
10097;BME280;5087;42.662;23.466;2023-08-24T08:18:29;95551.56;;;26.29;100.00
10097;BME280;5087;42.662;23.466;2023-08-24T08:20:56;95539.84;;;26.72;100.00
10097;BME280;5087;42.662;23.466;2023-08-24T08:23:25;95544.22;;;26.73;100.00
10097;BME280;5087;42.662;23.466;2023-08-24T08:25:52;95549.72;;;27.35;100.00
10097;BME280;5087;42.662;23.466;2023-08-24T08:28:24;95525.00;;;27.37;100.00
10097;BME280;5087;42.662;23.466;2023-08-24T08:30:51;95529.03;;;27.60;100.00
10097;BME280;5087;42.662;23.466;2023-08-24T08:33:19;95535.09;;;27.99;100.00
10097;BME280;5087;42.662;23.466;2023-08-24T08:35:47;95523.25;;;28.92;96.25
10097;BME280;5087;42.662;23.466;2023-08-24T08:38:14;95530.69;;;29.97;88.93
10097;BME280;5087;42.662;23.466;2023-08-24T08:40:44;95511.09;;;28.82;92.54
10097;BME280;5087;42.662;23.466;2023-08-24T08:43:15;95524.16;;;29.71;83.80
10097;BME280;5087;42.662;23.466;2023-08-24T08:45:42;95519.28;;;29.26;85.91
10097;BME280;5087;42.662;23.466;2023-08-24T08:48:10;95501.63;;;28.19;94.95
10097;BME280;5087;42.662;23.466;2023-08-24T08:50:38;95513.25;;;27.73;100.00
10097;BME280;5087;42.662;23.466;2023-08-24T08:53:06;95499.13;;;28.45;100.00
10097;BME280;5087;42.662;23.466;2023-08-24T08:55:33;95515.22;;;28.17;100.00
10097;BME280;5087;42.662;23.466;2023-08-24T08:58:02;95511.19;;;28.58;100.00
10097;BME280;5087;42.662;23.466;2023-08-24T09:00:30;95502.84;;;29.44;90.44
10097;BME280;5087;42.662;23.466;2023-08-24T09:02:59;95488.84;;;29.61;83.60
10097;BME280;5087;42.662;23.466;2023-08-24T09:05:26;95495.25;;;29.28;82.53
10097;BME280;5087;42.662;23.466;2023-08-24T09:07:57;95497.13;;;28.82;82.34
10097;BME280;5087;42.662;23.466;2023-08-24T09:10:25;95491.72;;;29.74;81.11
10097;BME280;5087;42.662;23.466;2023-08-24T09:12:52;95487.22;;;29.47;80.36
10097;BME280;5087;42.662;23.466;2023-08-24T09:15:27;95460.59;;;29.42;79.04
10097;BME280;5087;42.662;23.466;2023-08-24T09:17:55;95477.34;;;29.88;77.38
10097;BME280;5087;42.662;23.466;2023-08-24T09:20:22;95466.00;;;30.51;75.81
10097;BME280;5087;42.662;23.466;2023-08-24T09:22:49;95473.38;;;29.73;73.27
10097;BME280;5087;42.662;23.466;2023-08-24T09:25:20;95463.53;;;29.97;72.10
10097;BME280;5087;42.662;23.466;2023-08-24T09:27:56;95459.69;;;30.34;71.19
10097;BME280;5087;42.662;23.466;2023-08-24T09:30:23;95437.78;;;30.71;66.83
10097;BME280;5087;42.662;23.466;2023-08-24T09:33:01;95446.59;;;31.08;66.58
10097;BME280;5087;42.662;23.466;2023-08-24T09:35:28;95440.41;;;31.39;63.35
10097;BME280;5087;42.662;23.466;2023-08-24T09:37:55;95432.19;;;30.71;66.15
10097;BME280;5087;42.662;23.466;2023-08-24T09:40:24;95416.81;;;30.50;66.34
10097;BME280;5087;42.662;23.466;2023-08-24T09:42:52;95429.69;;;30.47;68.64
10097;BME280;5087;42.662;23.466;2023-08-24T09:45:19;95437.09;;;30.92;66.67
10097;BME280;5087;42.662;23.466;2023-08-24T09:47:49;95422.19;;;31.56;63.60
10097;BME280;5087;42.662;23.466;2023-08-24T09:50:19;95415.81;;;31.78;62.23
10097;BME280;5087;42.662;23.466;2023-08-24T09:52:47;95426.28;;;32.00;62.31
10097;BME280;5087;42.662;23.466;2023-08-24T09:55:20;95416.59;;;31.21;61.21
10097;BME280;5087;42.662;23.466;2023-08-24T09:57:53;95419.25;;;31.25;60.28
10097;BME280;5087;42.662;23.466;2023-08-24T10:00:24;95410.25;;;33.04;56.54
10097;BME280;5087;42.662;23.466;2023-08-24T10:02:53;95402.97;;;33.35;59.04
10097;BME280;5087;42.662;23.466;2023-08-24T10:05:23;95413.94;;;32.51;58.85
10097;BME280;5087;42.662;23.466;2023-08-24T10:07:52;95406.63;;;32.54;59.02
10097;BME280;5087;42.662;23.466;2023-08-24T10:10:21;95394.81;;;32.05;57.95
10097;BME280;5087;42.662;23.466;2023-08-24T10:12:56;95398.72;;;31.85;58.61
10097;BME280;5087;42.662;23.466;2023-08-24T10:15:26;95391.13;;;32.17;57.64
10097;BME280;5087;42.662;23.466;2023-08-24T10:17:54;95389.78;;;32.94;55.76
10097;BME280;5087;42.662;23.466;2023-08-24T10:20:24;95382.13;;;34.25;51.27
10097;BME280;5087;42.662;23.466;2023-08-24T10:22:52;95387.53;;;33.67;52.91
10097;BME280;5087;42.662;23.466;2023-08-24T10:25:20;95377.16;;;33.08;54.65
10097;BME280;5087;42.662;23.466;2023-08-24T10:27:50;95363.88;;;32.59;54.97
10097;BME280;5087;42.662;23.466;2023-08-24T10:30:20;95381.59;;;32.37;58.07
10097;BME280;5087;42.662;23.466;2023-08-24T10:32:48;95377.53;;;33.57;53.29
10097;BME280;5087;42.662;23.466;2023-08-24T10:35:19;95383.50;;;32.49;53.01
10097;BME280;5087;42.662;23.466;2023-08-24T10:37:52;95368.53;;;31.54;55.21
10097;BME280;5087;42.662;23.466;2023-08-24T10:40:31;95362.22;;;32.08;54.00
10097;BME280;5087;42.662;23.466;2023-08-24T10:43:02;95380.06;;;32.77;52.59
10097;BME280;5087;42.662;23.466;2023-08-24T10:45:54;95381.22;;;32.26;53.21
10097;BME280;5087;42.662;23.466;2023-08-24T10:48:23;95377.03;;;32.30;54.40
10097;BME280;5087;42.662;23.466;2023-08-24T10:51:16;95371.69;;;33.14;52.57
10097;BME280;5087;42.662;23.466;2023-08-24T10:53:51;95366.44;;;32.34;52.60
10097;BME280;5087;42.662;23.466;2023-08-24T10:56:20;95361.41;;;31.76;55.36
10097;BME280;5087;42.662;23.466;2023-08-24T10:58:48;95367.22;;;32.13;62.82
10097;BME280;5087;42.662;23.466;2023-08-24T11:01:38;95362.19;;;31.06;61.51
10097;BME280;5087;42.662;23.466;2023-08-24T11:04:06;95363.38;;;31.66;58.96
10097;BME280;5087;42.662;23.466;2023-08-24T11:06:33;95353.66;;;31.80;56.53
10097;BME280;5087;42.662;23.466;2023-08-24T11:09:09;95340.31;;;32.65;55.67
10097;BME280;5087;42.662;23.466;2023-08-24T11:11:39;95340.31;;;32.25;54.79
10097;BME280;5087;42.662;23.466;2023-08-24T11:14:14;95339.56;;;32.02;52.88
10097;BME280;5087;42.662;23.466;2023-08-24T11:16:43;95344.44;;;32.33;53.89
10097;BME280;5087;42.662;23.466;2023-08-24T11:19:11;95335.16;;;31.92;53.05
10097;BME280;5087;42.662;23.466;2023-08-24T11:21:39;95335.25;;;32.10;54.23
10097;BME280;5087;42.662;23.466;2023-08-24T11:24:09;95318.19;;;31.73;54.39
10097;BME280;5087;42.662;23.466;2023-08-24T11:26:39;95323.50;;;30.14;68.40
10097;BME280;5087;42.662;23.466;2023-08-24T11:29:08;95332.03;;;28.93;87.43
10097;BME280;5087;42.662;23.466;2023-08-24T11:31:36;95358.94;;;28.17;98.96
10097;BME280;5087;42.662;23.466;2023-08-24T11:34:05;95362.34;;;28.08;100.00
10097;BME280;5087;42.662;23.466;2023-08-24T11:36:41;95360.69;;;28.10;100.00
10097;BME280;5087;42.662;23.466;2023-08-24T11:39:15;95342.81;;;27.88;100.00
10097;BME280;5087;42.662;23.466;2023-08-24T11:41:43;95368.03;;;28.01;100.00
10097;BME280;5087;42.662;23.466;2023-08-24T11:44:12;95376.50;;;27.77;100.00
10097;BME280;5087;42.662;23.466;2023-08-24T11:46:39;95362.00;;;27.66;100.00
10097;BME280;5087;42.662;23.466;2023-08-24T11:49:07;95353.56;;;27.69;100.00
10097;BME280;5087;42.662;23.466;2023-08-24T11:51:36;95349.88;;;27.32;100.00
10097;BME280;5087;42.662;23.466;2023-08-24T11:54:03;95355.06;;;26.62;100.00
10097;BME280;5087;42.662;23.466;2023-08-24T11:56:32;95331.09;;;26.17;100.00
10097;BME280;5087;42.662;23.466;2023-08-24T11:59:02;95353.72;;;26.19;100.00
10097;BME280;5087;42.662;23.466;2023-08-24T12:01:29;95351.69;;;26.23;100.00
10097;BME280;5087;42.662;23.466;2023-08-24T12:03:57;95343.34;;;26.23;100.00
10097;BME280;5087;42.662;23.466;2023-08-24T12:06:26;95322.63;;;26.25;100.00
10097;BME280;5087;42.662;23.466;2023-08-24T12:08:53;95323.13;;;26.19;100.00
10097;BME280;5087;42.662;23.466;2023-08-24T12:11:21;95309.75;;;26.11;100.00
10097;BME280;5087;42.662;23.466;2023-08-24T12:13:58;95320.06;;;26.37;100.00
10097;BME280;5087;42.662;23.466;2023-08-24T12:16:25;95306.06;;;26.41;100.00
10097;BME280;5087;42.662;23.466;2023-08-24T12:18:56;95296.66;;;26.59;100.00
10097;BME280;5087;42.662;23.466;2023-08-24T12:21:25;95302.91;;;26.66;100.00
10097;BME280;5087;42.662;23.466;2023-08-24T12:23:55;95280.50;;;26.50;100.00
10097;BME280;5087;42.662;23.466;2023-08-24T12:26:23;95294.06;;;26.72;100.00
10097;BME280;5087;42.662;23.466;2023-08-24T12:28:50;95320.75;;;26.93;100.00
10097;BME280;5087;42.662;23.466;2023-08-24T12:31:20;95325.97;;;26.91;100.00
10097;BME280;5087;42.662;23.466;2023-08-24T12:33:59;95328.28;;;27.16;100.00
10097;BME280;5087;42.662;23.466;2023-08-24T12:36:26;95357.00;;;27.57;100.00
10097;BME280;5087;42.662;23.466;2023-08-24T12:38:56;95352.13;;;27.81;100.00
10097;BME280;5087;42.662;23.466;2023-08-24T12:41:24;95362.09;;;28.19;100.00
10097;BME280;5087;42.662;23.466;2023-08-24T12:43:51;95358.81;;;28.40;100.00
10097;BME280;5087;42.662;23.466;2023-08-24T12:46:20;95357.75;;;28.34;100.00
10097;BME280;5087;42.662;23.466;2023-08-24T12:48:47;95359.00;;;28.50;100.00
10097;BME280;5087;42.662;23.466;2023-08-24T12:51:15;95361.09;;;28.46;97.46
10097;BME280;5087;42.662;23.466;2023-08-24T12:53:43;95358.97;;;28.33;94.16
10097;BME280;5087;42.662;23.466;2023-08-24T12:56:10;95355.59;;;28.05;100.00
10097;BME280;5087;42.662;23.466;2023-08-24T12:58:39;95384.00;;;28.00;100.00
10097;BME280;5087;42.662;23.466;2023-08-24T13:01:06;95386.88;;;27.96;100.00